PWSweather.com
Personal Weather Stations
Station Observations

ChardChardGB

Lat: 50.877408, Lon: -2.94964741

Elevation: 341

Station Type: WS3083

http://www.merriott-astro.co.uk/weather/index.htm

High Low Average
Temperature 65.5°F18.6°C 54.5°F12.5°C 59.1°F15.1°C
Dew Point 58.3°F14.6°C 46.5°F8.1°C 53.0°F11.7°C
Winds 11.9 mph 19.2 kmh Calm Calm 5.0 mph S8.0 kmh S
Wind Gusts 20.6 mph33.2 kmh -- 8.0 mph12.9 kmh
Humidity 93% 69% 80%
Pressure 29.76 in1007.8 mb 29.67 in1004.7 mb -
Precipitation 0.00 in0.0 mm - -
Hour Temp Dew Point Humidity Winds Wind Gusts Pressure Precip Precip Rate Daily Precip Total
12:00 AM 56.3°F13.5°C 47.4°F8.6°C 72% 4.2 mph WSW6.8 kmh WSW 5.4 mph8.7 kmh 29.70 in1005.8 mb 0.00 in0.0 mm 0.00 in0.0 mm 0.00 in0.0 mm
12:10 AM 56.1°F13.4°C 47.2°F8.4°C 72% 2.3 mph WSW3.7 kmh WSW 3.8 mph6.1 kmh 29.70 in1005.8 mb 0.00 in0.0 mm 0.00 in0.0 mm 0.00 in0.0 mm
12:20 AM 55.9°F13.3°C 47.1°F8.4°C 72% 2.3 mph W3.7 kmh W 5.4 mph8.7 kmh 29.70 in1005.8 mb 0.00 in0.0 mm 0.00 in0.0 mm 0.00 in0.0 mm
12:30 AM 55.9°F13.3°C 47.1°F8.4°C 72% 2.9 mph SSE4.7 kmh SSE 6.9 mph11.1 kmh 29.70 in1005.8 mb 0.00 in0.0 mm 0.00 in0.0 mm 0.00 in0.0 mm
12:40 AM 55.9°F13.3°C 47.1°F8.4°C 72% 3.1 mph SW5.0 kmh SW 4.5 mph7.2 kmh 29.70 in1005.8 mb 0.00 in0.0 mm 0.00 in0.0 mm 0.00 in0.0 mm
12:50 AM 55.9°F13.3°C 47.1°F8.4°C 72% 4.4 mph WSW7.1 kmh WSW 8.3 mph13.4 kmh 29.70 in1005.8 mb 0.00 in0.0 mm 0.00 in0.0 mm 0.00 in0.0 mm
01:00 AM 55.9°F13.3°C 47.1°F8.4°C 72% 4.0 mph WSW6.4 kmh WSW 8.3 mph13.4 kmh 29.70 in1005.8 mb 0.00 in0.0 mm 0.00 in0.0 mm 0.00 in0.0 mm
01:10 AM 55.9°F13.3°C 47.1°F8.4°C 72% 2.7 mph SSW4.3 kmh SSW 5.4 mph8.7 kmh 29.70 in1005.8 mb 0.00 in0.0 mm 0.00 in0.0 mm 0.00 in0.0 mm
01:20 AM 55.9°F13.3°C 47.1°F8.4°C 72% 3.1 mph SW5.0 kmh SW 5.4 mph8.7 kmh 29.70 in1005.8 mb 0.00 in0.0 mm 0.00 in0.0 mm 0.00 in0.0 mm
01:30 AM 55.9°F13.3°C 47.1°F8.4°C 72% 3.8 mph SW6.1 kmh SW 5.4 mph8.7 kmh 29.70 in1005.8 mb 0.00 in0.0 mm 0.00 in0.0 mm 0.00 in0.0 mm
01:40 AM 55.9°F13.3°C 47.1°F8.4°C 72% 2.5 mph W4.0 kmh W 4.5 mph7.2 kmh 29.70 in1005.8 mb 0.00 in0.0 mm 0.00 in0.0 mm 0.00 in0.0 mm
01:50 AM 55.8°F13.2°C 46.9°F8.3°C 72% 2.1 mph WSW3.4 kmh WSW 3.1 mph5.0 kmh 29.70 in1005.8 mb 0.00 in0.0 mm 0.00 in0.0 mm 0.00 in0.0 mm
02:00 AM 55.8°F13.2°C 46.9°F8.3°C 72% 2.4 mph SSW3.9 kmh SSW 3.8 mph6.1 kmh 29.70 in1005.8 mb 0.00 in0.0 mm 0.00 in0.0 mm 0.00 in0.0 mm
02:10 AM 55.8°F13.2°C 46.9°F8.3°C 72% 1.7 mph SSW2.7 kmh SSW 3.8 mph6.1 kmh 29.70 in1005.8 mb 0.00 in0.0 mm 0.00 in0.0 mm 0.00 in0.0 mm
02:20 AM 55.8°F13.2°C 46.9°F8.3°C 72% 2.6 mph SSE4.2 kmh SSE 4.5 mph7.2 kmh 29.70 in1005.8 mb 0.00 in0.0 mm 0.00 in0.0 mm 0.00 in0.0 mm
02:30 AM 55.8°F13.2°C 46.9°F8.3°C 72% 2.1 mph S3.4 kmh S 3.1 mph5.0 kmh 29.70 in1005.8 mb 0.00 in0.0 mm 0.00 in0.0 mm 0.00 in0.0 mm
02:40 AM 55.6°F13.1°C 46.7°F8.2°C 72% 3.1 mph W5.0 kmh W 5.4 mph8.7 kmh 29.70 in1005.8 mb 0.00 in0.0 mm 0.00 in0.0 mm 0.00 in0.0 mm
02:50 AM 55.6°F13.1°C 46.7°F8.2°C 72% 3.2 mph SSE5.1 kmh SSE 5.4 mph8.7 kmh 29.70 in1005.8 mb 0.00 in0.0 mm 0.00 in0.0 mm 0.00 in0.0 mm
03:00 AM 55.6°F13.1°C 46.7°F8.2°C 72% 2.5 mph S4.0 kmh S 5.4 mph8.7 kmh 29.70 in1005.8 mb 0.00 in0.0 mm 0.00 in0.0 mm 0.00 in0.0 mm
03:10 AM 55.4°F13.0°C 46.5°F8.1°C 72% 1.6 mph S2.6 kmh S 3.1 mph5.0 kmh 29.69 in1005.4 mb 0.00 in0.0 mm 0.00 in0.0 mm 0.00 in0.0 mm
03:20 AM 55.4°F13.0°C 46.9°F8.3°C 73% 2.2 mph SE3.5 kmh SE 3.8 mph6.1 kmh 29.69 in1005.4 mb 0.00 in0.0 mm 0.00 in0.0 mm 0.00 in0.0 mm
03:30 AM 55.4°F13.0°C 46.9°F8.3°C 73% 3.5 mph SSW5.6 kmh SSW 6.9 mph11.1 kmh 29.70 in1005.8 mb 0.00 in0.0 mm 0.00 in0.0 mm 0.00 in0.0 mm
03:40 AM 55.2°F12.9°C 47.1°F8.4°C 74% 2.5 mph S4.0 kmh S 3.8 mph6.1 kmh 29.67 in1004.7 mb 0.00 in0.0 mm 0.00 in0.0 mm 0.00 in0.0 mm
03:50 AM 54.9°F12.7°C 47.1°F8.4°C 75% 1.4 mph SSW2.3 kmh SSW 3.1 mph5.0 kmh 29.70 in1005.8 mb 0.00 in0.0 mm 0.00 in0.0 mm 0.00 in0.0 mm
04:00 AM 54.7°F12.6°C 47.6°F8.7°C 77% 1.7 mph SW2.7 kmh SW 3.8 mph6.1 kmh 29.71 in1006.1 mb 0.00 in0.0 mm 0.00 in0.0 mm 0.00 in0.0 mm
04:10 AM 54.7°F12.6°C 48.3°F9.1°C 79% 2.8 mph SSW4.5 kmh SSW 3.8 mph6.1 kmh 29.70 in1005.8 mb 0.00 in0.0 mm 0.00 in0.0 mm 0.00 in0.0 mm
04:20 AM 54.5°F12.5°C 48.5°F9.2°C 80% 2.1 mph S3.4 kmh S 5.4 mph8.7 kmh 29.70 in1005.8 mb 0.00 in0.0 mm 0.00 in0.0 mm 0.00 in0.0 mm
04:30 AM 54.5°F12.5°C 48.5°F9.2°C 80% 1.7 mph SW2.7 kmh SW 6.0 mph9.7 kmh 29.72 in1006.4 mb 0.00 in0.0 mm 0.00 in0.0 mm 0.00 in0.0 mm
04:40 AM 54.7°F12.6°C 48.6°F9.2°C 80% 3.9 mph SW6.3 kmh SW 6.0 mph9.7 kmh 29.71 in1006.1 mb 0.00 in0.0 mm 0.00 in0.0 mm 0.00 in0.0 mm
04:50 AM 54.9°F12.7°C 48.8°F9.3°C 80% 2.2 mph S3.5 kmh S 4.5 mph7.2 kmh 29.71 in1006.1 mb 0.00 in0.0 mm 0.00 in0.0 mm 0.00 in0.0 mm
05:00 AM 54.9°F12.7°C 48.8°F9.3°C 80% Calm Calm -- 29.71 in1006.1 mb 0.00 in0.0 mm 0.00 in0.0 mm 0.00 in0.0 mm
05:10 AM 55.2°F12.9°C 49.2°F9.6°C 80% 1.3 mph SSW2.1 kmh SSW 3.8 mph6.1 kmh 29.71 in1006.1 mb 0.00 in0.0 mm 0.00 in0.0 mm 0.00 in0.0 mm
05:20 AM 55.4°F13.0°C 49.3°F9.6°C 80% 1.2 mph SSE1.9 kmh SSE 3.1 mph5.0 kmh 29.71 in1006.1 mb 0.00 in0.0 mm 0.00 in0.0 mm 0.00 in0.0 mm
05:30 AM 55.6°F13.1°C 49.5°F9.7°C 80% 0.9 mph S1.4 kmh S 3.1 mph5.0 kmh 29.71 in1006.1 mb 0.00 in0.0 mm 0.00 in0.0 mm 0.00 in0.0 mm
05:40 AM 55.8°F13.2°C 49.7°F9.8°C 80% 2.7 mph SE4.3 kmh SE 3.8 mph6.1 kmh 29.72 in1006.4 mb 0.00 in0.0 mm 0.00 in0.0 mm 0.00 in0.0 mm
05:50 AM 55.9°F13.3°C 49.5°F9.7°C 79% 2.6 mph SE4.2 kmh SE 5.4 mph8.7 kmh 29.71 in1006.1 mb 0.00 in0.0 mm 0.00 in0.0 mm 0.00 in0.0 mm
06:00 AM 56.7°F13.7°C 50.2°F10.1°C 79% 2.7 mph ESE4.3 kmh ESE 4.5 mph7.2 kmh 29.72 in1006.4 mb 0.00 in0.0 mm 0.00 in0.0 mm 0.00 in0.0 mm
06:10 AM 56.8°F13.8°C 49.7°F9.8°C 77% 1.8 mph E2.9 kmh E 3.1 mph5.0 kmh 29.72 in1006.4 mb 0.00 in0.0 mm 0.00 in0.0 mm 0.00 in0.0 mm
06:20 AM 59.4°F15.2°C 51.8°F11.0°C 76% 3.0 mph S4.8 kmh S 5.4 mph8.7 kmh 29.72 in1006.4 mb 0.00 in0.0 mm 0.00 in0.0 mm 0.00 in0.0 mm
06:30 AM 61.3°F16.3°C 51.5°F10.8°C 70% 4.6 mph S7.4 kmh S 7.6 mph12.2 kmh 29.72 in1006.4 mb 0.00 in0.0 mm 0.00 in0.0 mm 0.00 in0.0 mm
06:40 AM 60.3°F15.7°C 50.5°F10.3°C 70% 5.1 mph SSW8.2 kmh SSW 7.6 mph12.2 kmh 29.72 in1006.4 mb 0.00 in0.0 mm 0.00 in0.0 mm 0.00 in0.0 mm
06:50 AM 59.0°F15.0°C 49.6°F9.8°C 71% 4.7 mph SW7.6 kmh SW 7.6 mph12.2 kmh 29.72 in1006.4 mb 0.00 in0.0 mm 0.00 in0.0 mm 0.00 in0.0 mm
07:00 AM 59.7°F15.4°C 49.9°F9.9°C 70% 4.7 mph SSE7.6 kmh SSE 9.2 mph14.8 kmh 29.73 in1006.8 mb 0.00 in0.0 mm 0.00 in0.0 mm 0.00 in0.0 mm
07:10 AM 59.4°F15.2°C 49.6°F9.8°C 70% 4.5 mph SW7.2 kmh SW 7.6 mph12.2 kmh 29.73 in1006.8 mb 0.00 in0.0 mm 0.00 in0.0 mm 0.00 in0.0 mm
07:20 AM 59.4°F15.2°C 49.6°F9.8°C 70% 4.4 mph S7.1 kmh S 9.8 mph15.8 kmh 29.73 in1006.8 mb 0.00 in0.0 mm 0.00 in0.0 mm 0.00 in0.0 mm
07:30 AM 59.2°F15.1°C 49.4°F9.7°C 70% 5.4 mph SSW8.7 kmh SSW 9.2 mph14.8 kmh 29.73 in1006.8 mb 0.00 in0.0 mm 0.00 in0.0 mm 0.00 in0.0 mm
07:40 AM 59.4°F15.2°C 49.2°F9.6°C 69% 3.6 mph S5.8 kmh S 6.0 mph9.7 kmh 29.73 in1006.8 mb 0.00 in0.0 mm 0.00 in0.0 mm 0.00 in0.0 mm
07:50 AM 59.0°F15.0°C 49.2°F9.6°C 70% 3.6 mph SW5.8 kmh SW 6.0 mph9.7 kmh 29.73 in1006.8 mb 0.00 in0.0 mm 0.00 in0.0 mm 0.00 in0.0 mm
08:00 AM 58.6°F14.8°C 48.9°F9.4°C 70% 5.0 mph SSW8.0 kmh SSW 6.9 mph11.1 kmh 29.73 in1006.8 mb 0.00 in0.0 mm 0.00 in0.0 mm 0.00 in0.0 mm
08:10 AM 59.0°F15.0°C 49.6°F9.8°C 71% 3.4 mph S5.5 kmh S 7.6 mph12.2 kmh 29.73 in1006.8 mb 0.00 in0.0 mm 0.00 in0.0 mm 0.00 in0.0 mm
08:20 AM 58.6°F14.8°C 49.7°F9.8°C 72% 5.2 mph S8.4 kmh S 11.4 mph18.3 kmh 29.73 in1006.8 mb 0.00 in0.0 mm 0.00 in0.0 mm 0.00 in0.0 mm
08:30 AM 58.3°F14.6°C 50.0°F10.0°C 74% 6.5 mph SW10.5 kmh SW 11.4 mph18.3 kmh 29.73 in1006.8 mb 0.00 in0.0 mm 0.00 in0.0 mm 0.00 in0.0 mm
08:40 AM 58.5°F14.7°C 50.6°F10.3°C 75% 7.4 mph WSW11.9 kmh WSW 12.1 mph19.5 kmh 29.73 in1006.8 mb 0.00 in0.0 mm 0.00 in0.0 mm 0.00 in0.0 mm
08:50 AM 58.3°F14.6°C 50.8°F10.4°C 76% 8.0 mph S12.9 kmh S 12.1 mph19.5 kmh 29.73 in1006.8 mb 0.00 in0.0 mm 0.00 in0.0 mm 0.00 in0.0 mm
09:00 AM 59.2°F15.1°C 51.6°F10.9°C 76% 7.5 mph SSW12.1 kmh SSW 11.4 mph18.3 kmh 29.73 in1006.8 mb 0.00 in0.0 mm 0.00 in0.0 mm 0.00 in0.0 mm
09:10 AM 60.1°F15.6°C 51.0°F10.6°C 72% 7.3 mph S11.7 kmh S 10.7 mph17.2 kmh 29.73 in1006.8 mb 0.00 in0.0 mm 0.00 in0.0 mm 0.00 in0.0 mm
09:20 AM 60.8°F16.0°C 51.4°F10.8°C 71% 7.6 mph S12.2 kmh S 13.0 mph20.9 kmh 29.73 in1006.8 mb 0.00 in0.0 mm 0.00 in0.0 mm 0.00 in0.0 mm
09:30 AM 60.6°F15.9°C 50.8°F10.4°C 70% 8.9 mph S14.3 kmh S 12.1 mph19.5 kmh 29.73 in1006.8 mb 0.00 in0.0 mm 0.00 in0.0 mm 0.00 in0.0 mm
09:40 AM 60.8°F16.0°C 51.0°F10.6°C 70% 7.2 mph S11.6 kmh S 9.8 mph15.8 kmh 29.72 in1006.4 mb 0.00 in0.0 mm 0.00 in0.0 mm 0.00 in0.0 mm
09:50 AM 60.8°F16.0°C 51.0°F10.6°C 70% 8.4 mph S13.5 kmh S 11.4 mph18.3 kmh 29.73 in1006.8 mb 0.00 in0.0 mm 0.00 in0.0 mm 0.00 in0.0 mm
10:00 AM 59.4°F15.2°C 50.3°F10.2°C 72% 7.1 mph S11.4 kmh S 9.2 mph14.8 kmh 29.72 in1006.4 mb 0.00 in0.0 mm 0.00 in0.0 mm 0.00 in0.0 mm
10:10 AM 59.0°F15.0°C 50.4°F10.2°C 73% 7.5 mph SW12.1 kmh SW 10.7 mph17.2 kmh 29.72 in1006.4 mb 0.00 in0.0 mm 0.00 in0.0 mm 0.00 in0.0 mm
10:20 AM 58.8°F14.9°C 50.6°F10.3°C 74% 9.0 mph S14.5 kmh S 11.4 mph18.3 kmh 29.72 in1006.4 mb 0.00 in0.0 mm 0.00 in0.0 mm 0.00 in0.0 mm
10:30 AM 59.5°F15.3°C 52.0°F11.1°C 76% 7.9 mph S12.7 kmh S 11.4 mph18.3 kmh 29.71 in1006.1 mb 0.00 in0.0 mm 0.00 in0.0 mm 0.00 in0.0 mm
10:40 AM 59.9°F15.5°C 52.7°F11.5°C 77% 7.9 mph SSW12.7 kmh SSW 12.1 mph19.5 kmh 29.71 in1006.1 mb 0.00 in0.0 mm 0.00 in0.0 mm 0.00 in0.0 mm
10:50 AM 60.6°F15.9°C 53.7°F12.1°C 78% 8.4 mph SW13.5 kmh SW 11.4 mph18.3 kmh 29.71 in1006.1 mb 0.00 in0.0 mm 0.00 in0.0 mm 0.00 in0.0 mm
11:00 AM 61.7°F16.5°C 54.1°F12.3°C 76% 6.5 mph SW10.5 kmh SW 13.0 mph20.9 kmh 29.72 in1006.4 mb 0.00 in0.0 mm 0.00 in0.0 mm 0.00 in0.0 mm
11:10 AM 62.1°F16.7°C 52.9°F11.6°C 72% 9.4 mph SSE15.1 kmh SSE 12.1 mph19.5 kmh 29.71 in1006.1 mb 0.00 in0.0 mm 0.00 in0.0 mm 0.00 in0.0 mm
11:20 AM 61.9°F16.6°C 52.8°F11.6°C 72% 9.3 mph SSW15.0 kmh SSW 16.8 mph27.0 kmh 29.72 in1006.4 mb 0.00 in0.0 mm 0.00 in0.0 mm 0.00 in0.0 mm
11:30 AM 60.6°F15.9°C 52.7°F11.5°C 75% 8.8 mph SSW14.2 kmh SSW 20.6 mph33.2 kmh 29.71 in1006.1 mb 0.00 in0.0 mm 0.00 in0.0 mm 0.00 in0.0 mm
11:40 AM 60.8°F16.0°C 53.2°F11.8°C 76% 11.9 mph SW19.2 kmh SW 15.9 mph25.6 kmh 29.70 in1005.8 mb 0.00 in0.0 mm 0.00 in0.0 mm 0.00 in0.0 mm
11:50 AM 61.5°F16.4°C 54.3°F12.4°C 77% 9.5 mph S15.3 kmh S 16.8 mph27.0 kmh 29.71 in1006.1 mb 0.00 in0.0 mm 0.00 in0.0 mm 0.00 in0.0 mm
12:00 PM 61.3°F16.3°C 53.0°F11.7°C 74% 10.5 mph S16.9 kmh S 15.2 mph24.5 kmh 29.71 in1006.1 mb 0.00 in0.0 mm 0.00 in0.0 mm 0.00 in0.0 mm
12:10 PM 61.3°F16.3°C 53.0°F11.7°C 74% 8.0 mph S12.9 kmh S 13.0 mph20.9 kmh 29.70 in1005.8 mb 0.00 in0.0 mm 0.00 in0.0 mm 0.00 in0.0 mm
12:20 PM 60.1°F15.6°C 52.5°F11.4°C 76% 9.2 mph S14.8 kmh S 13.6 mph21.9 kmh 29.71 in1006.1 mb 0.00 in0.0 mm 0.00 in0.0 mm 0.00 in0.0 mm
12:30 PM 59.0°F15.0°C 52.9°F11.6°C 80% 9.0 mph SW14.5 kmh SW 12.1 mph19.5 kmh 29.70 in1005.8 mb 0.00 in0.0 mm 0.00 in0.0 mm 0.00 in0.0 mm
12:40 PM 58.6°F14.8°C 53.2°F11.8°C 82% 9.0 mph SSW14.5 kmh SSW 15.2 mph24.5 kmh 29.70 in1005.8 mb 0.00 in0.0 mm 0.00 in0.0 mm 0.00 in0.0 mm
12:50 PM 58.5°F14.7°C 53.3°F11.8°C 83% 9.4 mph SW15.1 kmh SW 13.0 mph20.9 kmh 29.71 in1006.1 mb 0.00 in0.0 mm 0.00 in0.0 mm 0.00 in0.0 mm
01:00 PM 58.8°F14.9°C 54.3°F12.4°C 85% 7.5 mph SW12.1 kmh SW 13.0 mph20.9 kmh 29.70 in1005.8 mb 0.00 in0.0 mm 0.00 in0.0 mm 0.00 in0.0 mm
01:10 PM 59.5°F15.3°C 54.7°F12.6°C 84% 9.6 mph SSW15.4 kmh SSW 13.6 mph21.9 kmh 29.70 in1005.8 mb 0.00 in0.0 mm 0.00 in0.0 mm 0.00 in0.0 mm
01:20 PM 60.3°F15.7°C 54.8°F12.7°C 82% 8.3 mph SSW13.4 kmh SSW 14.5 mph23.3 kmh 29.69 in1005.4 mb 0.00 in0.0 mm 0.00 in0.0 mm 0.00 in0.0 mm
01:30 PM 59.7°F15.4°C 53.9°F12.2°C 81% 9.9 mph SW15.9 kmh SW 15.9 mph25.6 kmh 29.70 in1005.8 mb 0.00 in0.0 mm 0.00 in0.0 mm 0.00 in0.0 mm
01:40 PM 59.4°F15.2°C 54.2°F12.3°C 83% 10.9 mph SSW17.5 kmh SSW 15.2 mph24.5 kmh 29.69 in1005.4 mb 0.00 in0.0 mm 0.00 in0.0 mm 0.00 in0.0 mm
01:50 PM 59.2°F15.1°C 54.0°F12.2°C 83% 10.5 mph SW16.9 kmh SW 13.6 mph21.9 kmh 29.70 in1005.8 mb 0.00 in0.0 mm 0.00 in0.0 mm 0.00 in0.0 mm
02:00 PM 58.6°F14.8°C 53.8°F12.1°C 84% 10.7 mph SW17.2 kmh SW 15.2 mph24.5 kmh 29.70 in1005.8 mb 0.00 in0.0 mm 0.00 in0.0 mm 0.00 in0.0 mm
02:10 PM 58.8°F14.9°C 54.3°F12.4°C 85% 9.5 mph SW15.3 kmh SW 15.2 mph24.5 kmh 29.70 in1005.8 mb 0.00 in0.0 mm 0.00 in0.0 mm 0.00 in0.0 mm
02:20 PM 58.6°F14.8°C 54.5°F12.5°C 86% 10.4 mph SW16.7 kmh SW 16.8 mph27.0 kmh 29.70 in1005.8 mb 0.00 in0.0 mm 0.00 in0.0 mm 0.00 in0.0 mm
02:30 PM 58.6°F14.8°C 54.5°F12.5°C 86% 10.2 mph SW16.4 kmh SW 15.2 mph24.5 kmh 29.70 in1005.8 mb 0.00 in0.0 mm 0.00 in0.0 mm 0.00 in0.0 mm
02:40 PM 58.6°F14.8°C 54.8°F12.7°C 87% 8.5 mph SSW13.7 kmh SSW 13.6 mph21.9 kmh 29.70 in1005.8 mb 0.00 in0.0 mm 0.00 in0.0 mm 0.00 in0.0 mm
02:50 PM 58.5°F14.7°C 54.9°F12.7°C 88% 9.4 mph S15.1 kmh S 13.0 mph20.9 kmh 29.70 in1005.8 mb 0.00 in0.0 mm 0.00 in0.0 mm 0.00 in0.0 mm
03:00 PM 58.5°F14.7°C 55.2°F12.9°C 89% 7.9 mph S12.7 kmh S 9.8 mph15.8 kmh 29.70 in1005.8 mb 0.00 in0.0 mm 0.00 in0.0 mm 0.00 in0.0 mm
03:10 PM 58.6°F14.8°C 55.7°F13.2°C 90% 7.5 mph S12.1 kmh S 10.7 mph17.2 kmh 29.70 in1005.8 mb 0.00 in0.0 mm 0.00 in0.0 mm 0.00 in0.0 mm
03:20 PM 59.4°F15.2°C 56.7°F13.7°C 91% 7.2 mph S11.6 kmh S 9.8 mph15.8 kmh 29.69 in1005.4 mb 0.00 in0.0 mm 0.00 in0.0 mm 0.00 in0.0 mm
03:30 PM 60.3°F15.7°C 57.6°F14.2°C 91% 6.9 mph SSW11.1 kmh SSW 9.2 mph14.8 kmh 29.69 in1005.4 mb 0.00 in0.0 mm 0.00 in0.0 mm 0.00 in0.0 mm
03:40 PM 60.8°F16.0°C 57.6°F14.2°C 89% 8.1 mph SSW13.0 kmh SSW 11.4 mph18.3 kmh 29.68 in1005.1 mb 0.00 in0.0 mm 0.00 in0.0 mm 0.00 in0.0 mm
03:50 PM 60.8°F16.0°C 57.2°F14.0°C 88% 8.4 mph S13.5 kmh S 11.4 mph18.3 kmh 29.68 in1005.1 mb 0.00 in0.0 mm 0.00 in0.0 mm 0.00 in0.0 mm
04:00 PM 61.0°F16.1°C 57.1°F13.9°C 87% 7.8 mph S12.6 kmh S 9.8 mph15.8 kmh 29.68 in1005.1 mb 0.00 in0.0 mm 0.00 in0.0 mm 0.00 in0.0 mm
04:10 PM 60.8°F16.0°C 56.9°F13.8°C 87% 8.8 mph SSW14.2 kmh SSW 13.6 mph21.9 kmh 29.70 in1005.8 mb 0.00 in0.0 mm 0.00 in0.0 mm 0.00 in0.0 mm
04:20 PM 61.7°F16.5°C 58.1°F14.5°C 88% 8.0 mph S12.9 kmh S 13.6 mph21.9 kmh 29.68 in1005.1 mb 0.00 in0.0 mm 0.00 in0.0 mm 0.00 in0.0 mm
04:30 PM 62.4°F16.9°C 57.9°F14.4°C 85% 8.9 mph SW14.3 kmh SW 11.4 mph18.3 kmh 29.69 in1005.4 mb 0.00 in0.0 mm 0.00 in0.0 mm 0.00 in0.0 mm
04:40 PM 63.0°F17.2°C 58.1°F14.5°C 84% 8.6 mph SSW13.8 kmh SSW 12.1 mph19.5 kmh 29.69 in1005.4 mb 0.00 in0.0 mm 0.00 in0.0 mm 0.00 in0.0 mm
04:50 PM 62.8°F17.1°C 57.2°F14.0°C 82% 7.7 mph SSW12.4 kmh SSW 13.0 mph20.9 kmh 29.70 in1005.8 mb 0.00 in0.0 mm 0.00 in0.0 mm 0.00 in0.0 mm
05:00 PM 63.0°F17.2°C 57.4°F14.1°C 82% 7.3 mph SSW11.7 kmh SSW 10.7 mph17.2 kmh 29.70 in1005.8 mb 0.00 in0.0 mm 0.00 in0.0 mm 0.00 in0.0 mm
05:10 PM 63.1°F17.3°C 57.6°F14.2°C 82% 5.8 mph SSW9.3 kmh SSW 10.7 mph17.2 kmh 29.70 in1005.8 mb 0.00 in0.0 mm 0.00 in0.0 mm 0.00 in0.0 mm
05:20 PM 63.9°F17.7°C 57.6°F14.2°C 80% 6.4 mph S10.3 kmh S 9.8 mph15.8 kmh 29.70 in1005.8 mb 0.00 in0.0 mm 0.00 in0.0 mm 0.00 in0.0 mm
05:30 PM 64.9°F18.3°C 57.9°F14.4°C 78% 5.9 mph SW9.5 kmh SW 9.8 mph15.8 kmh 29.70 in1005.8 mb 0.00 in0.0 mm 0.00 in0.0 mm 0.00 in0.0 mm
05:40 PM 65.5°F18.6°C 57.4°F14.1°C 75% 6.8 mph S10.9 kmh S 9.8 mph15.8 kmh 29.70 in1005.8 mb 0.00 in0.0 mm 0.00 in0.0 mm 0.00 in0.0 mm
05:50 PM 64.4°F18.0°C 56.3°F13.5°C 75% 6.5 mph SSW10.5 kmh SSW 9.2 mph14.8 kmh 29.70 in1005.8 mb 0.00 in0.0 mm 0.00 in0.0 mm 0.00 in0.0 mm
06:00 PM 63.5°F17.5°C 56.5°F13.6°C 78% 4.5 mph WSW7.2 kmh WSW 6.0 mph9.7 kmh 29.70 in1005.8 mb 0.00 in0.0 mm 0.00 in0.0 mm 0.00 in0.0 mm
06:10 PM 62.2°F16.8°C 57.0°F13.9°C 83% 6.2 mph SSW10.0 kmh SSW 8.3 mph13.4 kmh 29.70 in1005.8 mb 0.00 in0.0 mm 0.00 in0.0 mm 0.00 in0.0 mm
06:20 PM 61.5°F16.4°C 57.0°F13.9°C 85% 5.0 mph S8.0 kmh S 9.2 mph14.8 kmh 29.71 in1006.1 mb 0.00 in0.0 mm 0.00 in0.0 mm 0.00 in0.0 mm
06:30 PM 61.5°F16.4°C 57.6°F14.2°C 87% 4.5 mph SW7.2 kmh SW 6.0 mph9.7 kmh 29.71 in1006.1 mb 0.00 in0.0 mm 0.00 in0.0 mm 0.00 in0.0 mm
06:40 PM 61.7°F16.5°C 58.1°F14.5°C 88% 3.9 mph SW6.3 kmh SW 5.4 mph8.7 kmh 29.70 in1005.8 mb 0.00 in0.0 mm 0.00 in0.0 mm 0.00 in0.0 mm
06:50 PM 61.9°F16.6°C 58.3°F14.6°C 88% 3.9 mph S6.3 kmh S 6.9 mph11.1 kmh 29.71 in1006.1 mb 0.00 in0.0 mm 0.00 in0.0 mm 0.00 in0.0 mm
07:00 PM 61.3°F16.3°C 57.5°F14.2°C 87% 4.9 mph S7.9 kmh S 7.6 mph12.2 kmh 29.71 in1006.1 mb 0.00 in0.0 mm 0.00 in0.0 mm 0.00 in0.0 mm
07:10 PM 61.3°F16.3°C 57.8°F14.3°C 88% 3.0 mph SSW4.8 kmh SSW 4.5 mph7.2 kmh 29.71 in1006.1 mb 0.00 in0.0 mm 0.00 in0.0 mm 0.00 in0.0 mm
07:20 PM 61.2°F16.2°C 57.6°F14.2°C 88% 4.9 mph SSW7.9 kmh SSW 9.2 mph14.8 kmh 29.71 in1006.1 mb 0.00 in0.0 mm 0.00 in0.0 mm 0.00 in0.0 mm
07:30 PM 61.2°F16.2°C 57.9°F14.4°C 89% 2.9 mph S4.7 kmh S 3.8 mph6.1 kmh 29.70 in1005.8 mb 0.00 in0.0 mm 0.00 in0.0 mm 0.00 in0.0 mm
07:40 PM 61.2°F16.2°C 57.9°F14.4°C 89% 2.5 mph S4.0 kmh S 3.1 mph5.0 kmh 29.71 in1006.1 mb 0.00 in0.0 mm 0.00 in0.0 mm 0.00 in0.0 mm
07:50 PM 61.0°F16.1°C 57.7°F14.3°C 89% 3.1 mph S5.0 kmh S 4.5 mph7.2 kmh 29.72 in1006.4 mb 0.00 in0.0 mm 0.00 in0.0 mm 0.00 in0.0 mm
08:00 PM 60.8°F16.0°C 57.6°F14.2°C 89% 3.7 mph S6.0 kmh S 5.4 mph8.7 kmh 29.71 in1006.1 mb 0.00 in0.0 mm 0.00 in0.0 mm 0.00 in0.0 mm
08:10 PM 60.6°F15.9°C 57.7°F14.3°C 90% 3.9 mph S6.3 kmh S 6.0 mph9.7 kmh 29.72 in1006.4 mb 0.00 in0.0 mm 0.00 in0.0 mm 0.00 in0.0 mm
08:20 PM 60.3°F15.7°C 57.3°F14.1°C 90% 4.2 mph S6.8 kmh S 5.4 mph8.7 kmh 29.71 in1006.1 mb 0.00 in0.0 mm 0.00 in0.0 mm 0.00 in0.0 mm
08:30 PM 60.1°F15.6°C 57.5°F14.2°C 91% 4.5 mph SSW7.2 kmh SSW 6.9 mph11.1 kmh 29.72 in1006.4 mb 0.00 in0.0 mm 0.00 in0.0 mm 0.00 in0.0 mm
08:40 PM 59.9°F15.5°C 57.3°F14.1°C 91% 3.4 mph S5.5 kmh S 6.0 mph9.7 kmh 29.73 in1006.8 mb 0.00 in0.0 mm 0.00 in0.0 mm 0.00 in0.0 mm
08:50 PM 59.9°F15.5°C 57.6°F14.2°C 92% 2.5 mph S4.0 kmh S 3.1 mph5.0 kmh 29.73 in1006.8 mb 0.00 in0.0 mm 0.00 in0.0 mm 0.00 in0.0 mm
09:00 PM 59.9°F15.5°C 57.9°F14.4°C 93% 3.2 mph S5.1 kmh S 4.5 mph7.2 kmh 29.73 in1006.8 mb 0.00 in0.0 mm 0.00 in0.0 mm 0.00 in0.0 mm
09:10 PM 59.9°F15.5°C 57.9°F14.4°C 93% 1.4 mph S2.3 kmh S 4.5 mph7.2 kmh 29.74 in1007.1 mb 0.00 in0.0 mm 0.00 in0.0 mm 0.00 in0.0 mm
09:20 PM 59.9°F15.5°C 57.9°F14.4°C 93% Calm Calm -- 29.74 in1007.1 mb 0.00 in0.0 mm 0.00 in0.0 mm 0.00 in0.0 mm
09:30 PM 59.9°F15.5°C 57.9°F14.4°C 93% Calm Calm -- 29.73 in1006.8 mb 0.00 in0.0 mm 0.00 in0.0 mm 0.00 in0.0 mm
09:40 PM 59.9°F15.5°C 57.9°F14.4°C 93% Calm Calm -- 29.73 in1006.8 mb 0.00 in0.0 mm 0.00 in0.0 mm 0.00 in0.0 mm
09:50 PM 59.9°F15.5°C 57.9°F14.4°C 93% Calm Calm -- 29.74 in1007.1 mb 0.00 in0.0 mm 0.00 in0.0 mm 0.00 in0.0 mm
10:00 PM 59.9°F15.5°C 57.9°F14.4°C 93% Calm Calm -- 29.73 in1006.8 mb 0.00 in0.0 mm 0.00 in0.0 mm 0.00 in0.0 mm
10:10 PM 59.9°F15.5°C 57.9°F14.4°C 93% Calm Calm -- 29.74 in1007.1 mb 0.00 in0.0 mm 0.00 in0.0 mm 0.00 in0.0 mm
10:20 PM 59.9°F15.5°C 57.9°F14.4°C 93% Calm Calm -- 29.74 in1007.1 mb 0.00 in0.0 mm 0.00 in0.0 mm 0.00 in0.0 mm
10:30 PM 59.9°F15.5°C 57.9°F14.4°C 93% Calm Calm -- 29.74 in1007.1 mb 0.00 in0.0 mm 0.00 in0.0 mm 0.00 in0.0 mm
10:40 PM 59.9°F15.5°C 57.9°F14.4°C 93% Calm Calm -- 29.75 in1007.5 mb 0.00 in0.0 mm 0.00 in0.0 mm 0.00 in0.0 mm
10:50 PM 59.9°F15.5°C 57.9°F14.4°C 93% Calm Calm -- 29.75 in1007.5 mb 0.00 in0.0 mm 0.00 in0.0 mm 0.00 in0.0 mm
11:00 PM 59.9°F15.5°C 57.9°F14.4°C 93% Calm Calm -- 29.75 in1007.5 mb 0.00 in0.0 mm 0.00 in0.0 mm 0.00 in0.0 mm
11:10 PM 59.9°F15.5°C 57.9°F14.4°C 93% Calm Calm -- 29.75 in1007.5 mb 0.00 in0.0 mm 0.00 in0.0 mm 0.00 in0.0 mm
11:20 PM 59.9°F15.5°C 57.9°F14.4°C 93% Calm Calm -- 29.75 in1007.5 mb 0.00 in0.0 mm 0.00 in0.0 mm 0.00 in0.0 mm
11:30 PM 59.9°F15.5°C 57.9°F14.4°C 93% Calm Calm -- 29.76 in1007.8 mb 0.00 in0.0 mm 0.00 in0.0 mm 0.00 in0.0 mm
11:40 PM 59.9°F15.5°C 57.9°F14.4°C 93% Calm Calm -- 29.76 in1007.8 mb 0.00 in0.0 mm 0.00 in0.0 mm 0.00 in0.0 mm
11:50 PM 59.9°F15.5°C 57.9°F14.4°C 93% Calm Calm -- 29.75 in1007.5 mb 0.00 in0.0 mm 0.00 in0.0 mm 0.00 in0.0 mm